createdAt,value
2017-08-20T00:01:43.757Z,16.20
2017-08-20T00:04:11.365Z,16.10
2017-08-20T00:06:38.918Z,16.20
2017-08-20T00:09:06.456Z,16.10
2017-08-20T00:11:34.060Z,16.10
2017-08-20T00:14:01.598Z,16.20
2017-08-20T00:16:29.132Z,16.20
2017-08-20T00:18:56.697Z,16.10
2017-08-20T00:21:24.241Z,16.20
2017-08-20T00:23:51.789Z,16.20
2017-08-20T00:26:19.376Z,16.00
2017-08-20T00:28:46.929Z,15.90
2017-08-20T00:31:27.372Z,15.90
2017-08-20T00:38:45.245Z,15.90
2017-08-20T00:41:12.790Z,15.90
2017-08-20T00:43:40.345Z,16.00
2017-08-20T00:46:08.232Z,16.10
2017-08-20T00:48:36.593Z,16.10
2017-08-20T00:51:04.137Z,16.10
2017-08-20T00:53:31.709Z,16.00
2017-08-20T00:55:59.253Z,16.10
2017-08-20T00:58:26.893Z,16.00
2017-08-20T01:00:54.497Z,16.10
2017-08-20T01:03:22.032Z,16.10
2017-08-20T01:05:49.568Z,16.10
2017-08-20T01:08:17.181Z,16.10
2017-08-20T01:10:44.717Z,16.10
2017-08-20T01:13:12.248Z,16.20
2017-08-20T01:15:39.840Z,16.30
2017-08-20T01:18:07.390Z,16.30
2017-08-20T01:20:34.940Z,16.30
2017-08-20T01:23:02.588Z,16.20
2017-08-20T01:25:30.133Z,16.30
2017-08-20T01:27:57.677Z,16.30
2017-08-20T01:30:25.279Z,16.30
2017-08-20T01:32:52.824Z,16.40
2017-08-20T01:35:20.365Z,16.30
2017-08-20T01:37:47.977Z,16.30
2017-08-20T01:40:16.421Z,16.40
2017-08-20T01:42:43.970Z,16.30
2017-08-20T01:45:11.541Z,16.40
2017-08-20T01:47:39.097Z,16.20
2017-08-20T01:50:06.640Z,16.10
2017-08-20T01:52:34.257Z,16.10
2017-08-20T01:55:01.804Z,16.10
2017-08-20T01:57:29.353Z,16.10
2017-08-20T01:59:56.929Z,16.20
2017-08-20T02:02:24.865Z,16.10
2017-08-20T02:04:52.400Z,16.00
2017-08-20T02:07:20.741Z,15.80
2017-08-20T02:09:48.316Z,15.80
2017-08-20T02:12:17.173Z,15.60
2017-08-20T02:14:44.797Z,15.50
2017-08-20T02:17:12.346Z,15.50
2017-08-20T02:19:39.880Z,15.50
2017-08-20T02:22:07.480Z,15.40
2017-08-20T02:24:35.021Z,15.20
2017-08-20T02:27:02.567Z,15.30
2017-08-20T02:29:30.158Z,15.20
2017-08-20T02:31:57.701Z,15.20
2017-08-20T02:34:25.241Z,15.10
2017-08-20T02:36:52.841Z,15.00
2017-08-20T02:39:20.389Z,14.90
2017-08-20T02:41:47.933Z,15.00
2017-08-20T02:44:16.445Z,15.10
2017-08-20T02:46:43.984Z,15.10
2017-08-20T02:49:11.521Z,15.00
2017-08-20T02:51:39.088Z,15.00
2017-08-20T02:54:06.629Z,15.10
2017-08-20T02:56:34.173Z,15.00
2017-08-20T02:59:01.932Z,15.00
2017-08-20T03:01:29.468Z,15.00
2017-08-20T03:03:58.067Z,15.10
2017-08-20T03:06:25.642Z,15.20
2017-08-20T03:08:53.187Z,15.20
2017-08-20T03:11:20.721Z,15.20
2017-08-20T03:13:48.292Z,15.10
2017-08-20T03:16:17.221Z,14.80
2017-08-20T03:18:44.761Z,14.80
2017-08-20T03:21:12.345Z,14.80
2017-08-20T03:23:39.898Z,14.80
2017-08-20T03:26:07.459Z,14.80
2017-08-20T03:28:35.064Z,14.80
2017-08-20T03:31:02.598Z,14.90
2017-08-20T03:33:30.138Z,15.00
2017-08-20T03:35:57.709Z,14.90
2017-08-20T03:38:25.253Z,15.00
2017-08-20T03:40:52.788Z,14.90
2017-08-20T03:43:21.384Z,14.80
2017-08-20T03:45:48.923Z,14.80
2017-08-20T03:48:17.234Z,14.80
2017-08-20T03:50:44.798Z,14.80
2017-08-20T03:53:12.337Z,14.80
2017-08-20T03:55:39.875Z,14.80
2017-08-20T03:58:07.453Z,14.80
2017-08-20T04:00:35.001Z,14.70
2017-08-20T04:03:02.551Z,14.70
2017-08-20T04:05:30.381Z,14.60
2017-08-20T04:07:57.925Z,14.50
2017-08-20T04:10:25.470Z,14.50
2017-08-20T04:12:53.038Z,14.40
2017-08-20T04:15:20.584Z,14.20
2017-08-20T04:17:48.116Z,14.10
2017-08-20T04:20:17.273Z,14.10
2017-08-20T04:22:44.821Z,14.10
2017-08-20T04:25:12.361Z,14.10
2017-08-20T04:27:39.960Z,14.20
2017-08-20T04:30:07.501Z,14.00
2017-08-20T04:32:35.041Z,13.90
2017-08-20T04:35:02.654Z,13.90
2017-08-20T04:37:30.201Z,13.90
2017-08-20T04:39:57.746Z,13.90
2017-08-20T04:42:25.336Z,13.80
2017-08-20T04:44:52.877Z,13.90
2017-08-20T04:47:20.414Z,13.90
2017-08-20T04:49:48.008Z,13.80
2017-08-20T04:52:15.586Z,13.80
2017-08-20T04:54:43.137Z,13.90
2017-08-20T04:57:10.710Z,13.90
2017-08-20T04:59:39.016Z,13.90
2017-08-20T05:02:06.561Z,13.90
2017-08-20T05:04:34.913Z,13.80
2017-08-20T05:07:02.732Z,13.80
2017-08-20T05:09:30.276Z,13.80
2017-08-20T05:11:57.869Z,13.80
2017-08-20T05:14:25.405Z,13.70
2017-08-20T05:16:52.949Z,13.80
2017-08-20T05:19:20.521Z,13.80
2017-08-20T05:21:48.070Z,13.90
2017-08-20T05:24:16.413Z,13.90
2017-08-20T05:26:43.977Z,14.00
2017-08-20T05:29:11.521Z,14.00
2017-08-20T05:31:39.066Z,14.00
2017-08-20T05:34:06.660Z,13.90
2017-08-20T05:36:34.201Z,14.00
2017-08-20T05:39:01.746Z,14.00
2017-08-20T05:41:29.356Z,14.10
2017-08-20T05:43:56.897Z,14.20
2017-08-20T05:46:24.433Z,14.20
2017-08-20T05:48:52.024Z,14.30
2017-08-20T05:51:19.573Z,14.50
2017-08-20T05:53:47.113Z,14.50
2017-08-20T05:56:15.573Z,14.50
2017-08-20T05:58:43.117Z,14.60
2017-08-20T06:01:10.662Z,14.70
2017-08-20T06:03:38.241Z,14.70
2017-08-20T06:06:05.785Z,14.60
2017-08-20T06:08:33.661Z,14.60
2017-08-20T06:11:01.246Z,14.70
2017-08-20T06:13:28.795Z,14.80
2017-08-20T06:15:56.333Z,14.90
2017-08-20T06:18:23.930Z,14.90
2017-08-20T06:20:51.481Z,15.00
2017-08-20T06:23:19.030Z,15.10
2017-08-20T06:25:46.596Z,15.40
2017-08-20T06:28:15.476Z,16.20
2017-08-20T06:30:43.021Z,17.70
2017-08-20T06:33:10.597Z,19.10
2017-08-20T06:35:38.141Z,20.20
2017-08-20T06:38:05.679Z,21.50
2017-08-20T06:40:33.276Z,22.00
2017-08-20T06:43:00.820Z,23.60
2017-08-20T06:45:28.361Z,23.50
2017-08-20T06:47:56.725Z,24.20
2017-08-20T06:50:24.264Z,24.20
2017-08-20T06:52:51.807Z,24.50
2017-08-20T06:55:19.374Z,25.10
2017-08-20T06:57:46.915Z,25.80
2017-08-20T07:00:15.649Z,25.60
2017-08-20T07:02:43.722Z,26.60
2017-08-20T07:05:11.265Z,27.20
2017-08-20T07:07:38.807Z,28.30
2017-08-20T07:10:06.897Z,28.90
2017-08-20T07:12:34.432Z,29.60
2017-08-20T07:15:01.969Z,29.50
2017-08-20T07:17:29.560Z,30.20
2017-08-20T07:19:57.097Z,30.50
2017-08-20T07:22:24.637Z,31.20
2017-08-20T07:24:52.233Z,32.10
2017-08-20T07:27:19.777Z,32.70
2017-08-20T07:29:47.329Z,32.90
2017-08-20T07:32:15.609Z,32.80
2017-08-20T07:34:43.913Z,33.50
2017-08-20T07:37:11.461Z,33.40
2017-08-20T07:39:39.029Z,33.90
2017-08-20T07:42:06.813Z,34.60
2017-08-20T07:44:34.378Z,34.90
2017-08-20T07:47:02.083Z,34.70
2017-08-20T07:49:29.621Z,33.50
2017-08-20T07:51:57.188Z,34.00
2017-08-20T07:54:24.944Z,34.90
2017-08-20T07:56:52.643Z,35.50
2017-08-20T07:59:20.248Z,35.00
2017-08-20T08:01:47.834Z,34.60
2017-08-20T08:04:16.729Z,35.20
2017-08-20T08:06:44.312Z,35.40
2017-08-20T08:09:12.669Z,36.80
2017-08-20T08:11:41.029Z,36.80
2017-08-20T08:14:08.589Z,36.60
2017-08-20T08:16:36.158Z,35.20
2017-08-20T08:19:03.709Z,35.50
2017-08-20T08:21:31.343Z,35.00
2017-08-20T08:23:58.915Z,35.10
2017-08-20T08:26:26.474Z,34.60
2017-08-20T08:28:54.013Z,33.70
2017-08-20T08:31:21.701Z,31.90
2017-08-20T08:33:49.309Z,31.50
2017-08-20T08:36:16.850Z,31.60
2017-08-20T08:38:44.675Z,32.10
2017-08-20T08:41:12.227Z,31.50
2017-08-20T08:43:39.957Z,31.10
2017-08-20T08:46:07.552Z,30.60
2017-08-20T08:48:35.333Z,31.20
2017-08-20T08:51:02.885Z,30.40
2017-08-20T08:53:30.530Z,32.00
2017-08-20T08:55:58.082Z,31.50
2017-08-20T08:58:25.659Z,32.10
2017-08-20T09:00:53.248Z,33.10
2017-08-20T09:03:20.797Z,34.10
2017-08-20T09:05:48.388Z,35.30
2017-08-20T09:08:16.482Z,34.80
2017-08-20T09:10:44.026Z,33.90
2017-08-20T09:13:13.122Z,31.90
2017-08-20T09:15:40.747Z,31.80
2017-08-20T09:18:08.290Z,31.60
2017-08-20T09:20:35.837Z,33.90
2017-08-20T09:23:03.405Z,34.30
2017-08-20T09:25:30.973Z,35.70
2017-08-20T09:27:58.589Z,37.00
2017-08-20T09:30:26.172Z,37.40
2017-08-20T09:32:53.722Z,38.80
2017-08-20T09:35:21.408Z,38.90
2017-08-20T09:37:49.017Z,39.70
2017-08-20T09:40:16.552Z,40.10
2017-08-20T09:42:44.185Z,39.60
2017-08-20T09:45:11.813Z,39.30
2017-08-20T09:47:40.128Z,35.90
2017-08-20T09:50:07.802Z,35.80
2017-08-20T09:52:35.392Z,34.50
2017-08-20T09:55:02.937Z,32.90
2017-08-20T09:57:30.629Z,32.60
2017-08-20T09:59:58.275Z,32.00
2017-08-20T10:02:25.885Z,32.40
2017-08-20T10:04:53.433Z,33.00
2017-08-20T10:07:21.046Z,32.40
2017-08-20T10:09:48.586Z,32.90
2017-08-20T10:12:16.690Z,32.70
2017-08-20T10:14:44.574Z,31.90
2017-08-20T10:17:12.105Z,32.10
2017-08-20T10:19:39.650Z,31.90
2017-08-20T10:22:07.246Z,31.60
2017-08-20T10:24:34.801Z,31.50
2017-08-20T10:27:02.341Z,30.70
2017-08-20T10:29:29.918Z,30.10
2017-08-20T10:31:57.478Z,29.60
2017-08-20T10:34:25.013Z,29.00
2017-08-20T10:36:52.572Z,28.40
2017-08-20T10:39:20.111Z,28.00
2017-08-20T10:41:47.649Z,27.80
2017-08-20T10:44:16.301Z,26.90
2017-08-20T10:46:43.847Z,26.80
2017-08-20T10:49:11.390Z,25.80
2017-08-20T10:51:38.973Z,25.70
2017-08-20T10:54:06.516Z,24.80
2017-08-20T10:56:34.063Z,24.20
2017-08-20T10:59:01.644Z,24.20
2017-08-20T11:01:29.192Z,24.40
2017-08-20T11:03:56.728Z,24.80
2017-08-20T11:06:24.338Z,25.30
2017-08-20T11:08:51.884Z,25.60
2017-08-20T11:11:19.440Z,25.80
2017-08-20T11:13:47.050Z,25.80
2017-08-20T11:16:16.678Z,25.70
2017-08-20T11:18:44.248Z,25.70
2017-08-20T11:21:11.824Z,25.40
2017-08-20T11:23:39.365Z,25.20
2017-08-20T11:26:06.910Z,24.80
2017-08-20T11:28:34.525Z,24.00
2017-08-20T11:31:02.080Z,23.70
2017-08-20T11:33:29.628Z,23.80
2017-08-20T11:35:57.656Z,24.20
2017-08-20T11:38:25.286Z,24.40
2017-08-20T11:40:52.849Z,24.60
2017-08-20T11:43:20.463Z,24.80
2017-08-20T11:45:53.934Z,24.70
2017-08-20T11:48:21.531Z,24.60
2017-08-20T11:50:49.072Z,24.50
2017-08-20T11:53:16.684Z,24.60
2017-08-20T11:55:44.297Z,24.80
2017-08-20T11:58:12.273Z,24.70
2017-08-20T12:00:39.813Z,24.70
2017-08-20T12:03:07.433Z,24.80
2017-08-20T12:05:34.972Z,25.00
2017-08-20T12:08:02.537Z,24.60
2017-08-20T12:10:30.132Z,24.40
2017-08-20T12:12:57.677Z,24.40
2017-08-20T12:15:25.218Z,24.40
2017-08-20T12:17:53.333Z,24.40
2017-08-20T12:20:20.873Z,24.70
2017-08-20T12:22:48.424Z,25.00
2017-08-20T12:25:16.494Z,25.20
2017-08-20T12:27:44.041Z,25.50
2017-08-20T12:30:11.589Z,25.50
2017-08-20T12:32:39.213Z,25.50
2017-08-20T12:35:07.516Z,24.50
2017-08-20T12:37:35.057Z,24.40
2017-08-20T12:40:02.644Z,24.40
2017-08-20T12:42:30.193Z,24.10
2017-08-20T12:44:57.789Z,24.10
2017-08-20T12:47:25.369Z,24.10
2017-08-20T12:49:52.907Z,24.20
2017-08-20T12:52:20.444Z,24.10
2017-08-20T12:54:48.034Z,24.00
2017-08-20T12:57:16.513Z,23.70
2017-08-20T12:59:44.057Z,23.60
2017-08-20T13:02:11.641Z,23.40
2017-08-20T13:04:39.185Z,23.50
2017-08-20T13:07:06.729Z,23.70
2017-08-20T13:09:34.317Z,23.60
2017-08-20T13:12:01.885Z,23.50
2017-08-20T13:14:29.454Z,23.40
2017-08-20T13:16:57.054Z,23.60
2017-08-20T13:19:24.928Z,23.80
2017-08-20T13:21:53.410Z,23.90
2017-08-20T13:24:21.046Z,23.90
2017-08-20T13:26:49.373Z,24.00
2017-08-20T13:29:16.927Z,24.00
2017-08-20T13:31:44.530Z,23.50
2017-08-20T13:34:12.102Z,23.10
2017-08-20T13:36:40.421Z,23.30
2017-08-20T13:39:08.041Z,23.30
2017-08-20T13:41:35.641Z,23.40
2017-08-20T13:44:03.226Z,23.60
2017-08-20T13:46:30.820Z,23.70
2017-08-20T13:48:58.381Z,23.80
2017-08-20T13:51:27.002Z,24.00
2017-08-20T13:53:54.663Z,24.00
2017-08-20T13:56:24.380Z,24.10
2017-08-20T13:58:51.939Z,24.00
2017-08-20T14:01:19.598Z,23.70
2017-08-20T14:03:47.155Z,23.50
2017-08-20T14:06:17.281Z,23.50
2017-08-20T14:08:44.849Z,23.50
2017-08-20T14:11:12.405Z,23.30
2017-08-20T14:13:39.965Z,23.00
2017-08-20T14:16:07.563Z,23.00
2017-08-20T14:18:35.121Z,22.90
2017-08-20T14:21:02.956Z,23.00
2017-08-20T14:23:30.573Z,23.20
2017-08-20T14:25:58.121Z,23.10
2017-08-20T14:28:25.701Z,22.80
2017-08-20T14:30:53.324Z,23.00
2017-08-20T14:33:20.869Z,23.30
2017-08-20T14:35:48.412Z,23.60
2017-08-20T14:38:17.317Z,23.60
2017-08-20T14:40:44.859Z,23.60
2017-08-20T14:43:12.419Z,23.40
2017-08-20T14:45:40.123Z,23.20
2017-08-20T14:48:07.675Z,23.30
2017-08-20T14:50:35.237Z,23.30
2017-08-20T14:53:02.832Z,23.10
2017-08-20T14:55:30.377Z,22.90
2017-08-20T14:57:57.921Z,22.60
2017-08-20T15:00:25.507Z,22.60
2017-08-20T15:02:53.065Z,22.70
2017-08-20T15:05:20.621Z,23.00
2017-08-20T15:07:49.012Z,22.90
2017-08-20T15:10:16.565Z,22.80
2017-08-20T15:12:44.139Z,22.80
2017-08-20T15:15:11.725Z,22.90
2017-08-20T15:17:39.271Z,22.70
2017-08-20T15:20:06.881Z,22.60
2017-08-20T15:22:35.917Z,22.40
2017-08-20T15:25:03.513Z,22.40
2017-08-20T15:27:31.061Z,22.10
2017-08-20T15:29:58.692Z,21.90
2017-08-20T15:32:26.245Z,22.00
2017-08-20T15:34:53.863Z,21.90
2017-08-20T15:37:21.546Z,21.90
2017-08-20T15:39:49.945Z,22.30
2017-08-20T15:42:17.540Z,22.30
2017-08-20T15:44:45.131Z,22.50
2017-08-20T15:47:12.678Z,22.90
2017-08-20T15:49:40.269Z,23.00
2017-08-20T15:52:07.964Z,23.00
2017-08-20T15:54:35.533Z,23.10
2017-08-20T15:57:03.072Z,23.30
2017-08-20T15:59:31.618Z,23.30
2017-08-20T16:01:59.165Z,23.30
2017-08-20T16:04:26.717Z,23.40
2017-08-20T16:06:54.302Z,23.30
2017-08-20T16:09:21.859Z,23.20
2017-08-20T16:11:49.405Z,23.10
2017-08-20T16:14:17.042Z,23.20
2017-08-20T16:16:44.602Z,23.30
2017-08-20T16:19:12.242Z,23.20
2017-08-20T16:21:39.809Z,23.10
2017-08-20T16:24:07.517Z,23.20
2017-08-20T16:26:35.062Z,23.20
2017-08-20T16:29:02.624Z,23.10
2017-08-20T16:31:30.173Z,23.00
2017-08-20T16:33:57.717Z,23.00
2017-08-20T16:36:25.321Z,23.00
2017-08-20T16:38:52.871Z,22.80
2017-08-20T16:41:20.426Z,22.80
2017-08-20T16:43:48.045Z,22.80
2017-08-20T16:46:16.402Z,22.70
2017-08-20T16:48:43.949Z,22.50
2017-08-20T16:51:11.522Z,22.30
2017-08-20T16:53:39.069Z,22.00
2017-08-20T16:56:06.604Z,22.00
2017-08-20T16:58:34.203Z,21.90
2017-08-20T17:01:01.743Z,21.90
2017-08-20T17:03:29.304Z,21.80
2017-08-20T17:05:56.868Z,21.80
2017-08-20T17:08:24.409Z,21.70
2017-08-20T17:10:51.953Z,21.60
2017-08-20T17:13:19.528Z,21.60
2017-08-20T17:15:47.066Z,21.40
2017-08-20T17:18:15.484Z,21.30
2017-08-20T17:20:43.093Z,21.30
2017-08-20T17:23:10.649Z,21.30
2017-08-20T17:25:38.518Z,21.20
2017-08-20T17:28:06.088Z,20.90
2017-08-20T17:30:33.629Z,20.90
2017-08-20T17:33:01.169Z,20.90
2017-08-20T17:35:28.782Z,21.00
2017-08-20T17:37:56.328Z,20.80
2017-08-20T17:40:23.869Z,20.70
2017-08-20T17:42:51.493Z,20.60
2017-08-20T17:45:19.036Z,20.50
2017-08-20T17:47:46.564Z,20.20
2017-08-20T17:50:15.688Z,20.20
2017-08-20T17:52:43.224Z,20.20
2017-08-20T17:55:10.765Z,20.20
2017-08-20T17:57:38.358Z,20.10
2017-08-20T18:00:05.915Z,20.00
2017-08-20T18:02:33.702Z,19.90
2017-08-20T18:05:01.305Z,19.80
2017-08-20T18:07:29.609Z,19.70
2017-08-20T18:09:57.149Z,19.70
2017-08-20T18:12:25.488Z,19.70
2017-08-20T18:14:53.040Z,19.60
2017-08-20T18:17:20.580Z,19.60
2017-08-20T18:19:48.144Z,19.60
2017-08-20T18:22:16.444Z,19.60
2017-08-20T18:24:43.981Z,19.60
2017-08-20T18:27:11.854Z,19.60
2017-08-20T18:29:39.404Z,19.50
2017-08-20T18:32:06.945Z,19.30
2017-08-20T18:34:34.515Z,19.30
2017-08-20T18:37:02.061Z,19.30
2017-08-20T18:39:29.605Z,19.20
2017-08-20T18:41:57.178Z,19.10
2017-08-20T18:44:24.770Z,19.10
2017-08-20T18:46:52.337Z,19.00
2017-08-20T18:49:19.937Z,18.90
2017-08-20T18:51:47.544Z,18.80
2017-08-20T18:54:15.544Z,18.70
2017-08-20T18:56:43.137Z,18.60
2017-08-20T18:59:11.477Z,18.50
2017-08-20T19:01:39.085Z,18.50
2017-08-20T19:04:06.735Z,18.50
2017-08-20T19:06:35.041Z,18.50
2017-08-20T19:09:02.601Z,18.50
2017-08-20T19:11:30.256Z,18.40
2017-08-20T19:13:57.793Z,18.40
2017-08-20T19:16:26.109Z,18.30
2017-08-20T19:18:53.690Z,18.20
2017-08-20T19:21:21.454Z,18.10
2017-08-20T19:23:49.196Z,18.10
2017-08-20T19:26:16.761Z,18.00
2017-08-20T19:28:44.909Z,17.90
2017-08-20T19:31:12.453Z,17.90
2017-08-20T19:33:40.853Z,17.80
2017-08-20T19:36:08.404Z,17.70
2017-08-20T19:38:35.954Z,17.80
2017-08-20T19:41:03.534Z,17.80
2017-08-20T19:43:31.080Z,17.80
2017-08-20T19:45:58.703Z,17.70
2017-08-20T19:48:26.281Z,17.70
2017-08-20T19:50:53.909Z,17.80
2017-08-20T19:53:21.464Z,17.80
2017-08-20T19:55:49.078Z,17.80
2017-08-20T19:58:16.614Z,17.80
2017-08-20T20:00:44.167Z,17.70
2017-08-20T20:03:11.797Z,17.70
2017-08-20T20:05:39.329Z,17.70
2017-08-20T20:08:06.886Z,17.70
2017-08-20T20:10:34.454Z,17.70
2017-08-20T20:13:02.049Z,17.80
2017-08-20T20:15:29.592Z,17.80
2017-08-20T20:17:57.214Z,17.70
2017-08-20T20:20:25.535Z,17.50
2017-08-20T20:22:53.098Z,17.50
2017-08-20T20:25:20.677Z,17.60
2017-08-20T20:27:48.378Z,17.60
2017-08-20T20:30:16.577Z,17.60
2017-08-20T20:32:44.156Z,17.50
2017-08-20T20:35:11.696Z,17.30
2017-08-20T20:37:39.237Z,17.30
2017-08-20T20:40:06.841Z,17.30
2017-08-20T20:42:34.380Z,17.40
2017-08-20T20:45:01.919Z,17.40
2017-08-20T20:47:29.482Z,17.50
2017-08-20T20:49:57.028Z,17.30
2017-08-20T20:52:24.564Z,17.40
2017-08-20T20:54:52.138Z,17.50
2017-08-20T20:57:19.711Z,17.60
2017-08-20T20:59:47.259Z,17.60
2017-08-20T21:02:15.577Z,17.50
2017-08-20T21:04:43.483Z,17.50
2017-08-20T21:07:11.026Z,17.40
2017-08-20T21:09:38.629Z,17.40
2017-08-20T21:12:06.177Z,17.50
2017-08-20T21:14:33.785Z,17.40
2017-08-20T21:17:01.381Z,17.40
2017-08-20T21:19:28.912Z,17.30
2017-08-20T21:21:56.474Z,17.30
2017-08-20T21:24:24.056Z,17.10
2017-08-20T21:26:51.594Z,17.00
2017-08-20T21:29:19.185Z,17.00
2017-08-20T21:31:47.169Z,16.90
2017-08-20T21:34:17.237Z,17.00
2017-08-20T21:36:44.784Z,16.90
2017-08-20T21:39:12.352Z,16.90
2017-08-20T21:41:39.893Z,16.90
2017-08-20T21:44:07.429Z,16.90
2017-08-20T21:46:35.176Z,16.90
2017-08-20T21:49:02.713Z,16.90
2017-08-20T21:51:30.252Z,16.70
2017-08-20T21:53:57.827Z,16.70
2017-08-20T21:56:25.405Z,16.70
2017-08-20T21:58:52.992Z,16.60
2017-08-20T22:01:20.552Z,16.70
2017-08-20T22:03:48.093Z,16.70
2017-08-20T22:06:17.260Z,16.70
2017-08-20T22:08:44.886Z,16.60
2017-08-20T22:11:12.428Z,16.50
2017-08-20T22:13:39.968Z,16.50
2017-08-20T22:16:07.626Z,16.40
2017-08-20T22:18:35.161Z,16.40
2017-08-20T22:21:03.949Z,16.30
2017-08-20T22:23:31.514Z,16.20
2017-08-20T22:25:59.047Z,16.10
2017-08-20T22:28:26.619Z,16.10
2017-08-20T22:30:54.257Z,16.10
2017-08-20T22:33:22.541Z,16.00
2017-08-20T22:35:50.080Z,16.10
2017-08-20T22:38:17.641Z,16.10
2017-08-20T22:40:45.176Z,16.00
2017-08-20T22:43:13.643Z,16.10
2017-08-20T22:45:41.201Z,16.10
2017-08-20T22:48:08.744Z,16.10
2017-08-20T22:50:36.393Z,16.10
2017-08-20T22:53:03.977Z,16.00
2017-08-20T22:55:31.521Z,15.90
2017-08-20T22:57:59.061Z,15.90
2017-08-20T23:00:26.629Z,16.00
2017-08-20T23:02:54.935Z,16.20
2017-08-20T23:05:22.476Z,16.10
2017-08-20T23:07:50.056Z,16.30
2017-08-20T23:10:17.585Z,16.10
2017-08-20T23:12:45.126Z,16.10
2017-08-20T23:15:14.440Z,16.10
2017-08-20T23:17:42.740Z,16.10
2017-08-20T23:20:10.301Z,16.00
2017-08-20T23:22:37.901Z,16.10
2017-08-20T23:25:05.436Z,16.00
2017-08-20T23:27:32.976Z,16.00
2017-08-20T23:30:00.550Z,15.90
2017-08-20T23:32:28.084Z,15.90
2017-08-20T23:34:55.770Z,15.70
2017-08-20T23:37:23.390Z,15.70
2017-08-20T23:39:50.940Z,15.70
2017-08-20T23:42:18.492Z,15.70
2017-08-20T23:44:46.057Z,15.60
2017-08-20T23:47:14.637Z,15.50
2017-08-20T23:49:42.168Z,15.40
2017-08-20T23:52:09.728Z,15.30
2017-08-20T23:54:37.269Z,15.30
2017-08-20T23:57:04.805Z,15.10
2017-08-20T23:59:32.413Z,15.10
